createdAt,value
2018-12-05T00:01:24.864Z,3.33
2018-12-05T00:03:53.318Z,4.07
2018-12-05T00:06:21.751Z,3.40
2018-12-05T00:08:51.629Z,5.23
2018-12-05T00:11:20.452Z,3.93
2018-12-05T00:13:48.905Z,4.00
2018-12-05T00:16:18.130Z,3.93
2018-12-05T00:18:46.647Z,4.60
2018-12-05T00:21:15.159Z,4.50
2018-12-05T00:23:43.612Z,5.87
2018-12-05T00:26:12.072Z,3.53
2018-12-05T00:28:40.565Z,3.60
2018-12-05T00:31:09.059Z,4.70
2018-12-05T00:33:38.569Z,4.07
2018-12-05T00:36:07.118Z,3.57
2018-12-05T00:38:35.577Z,4.83
2018-12-05T00:41:04.065Z,4.10
2018-12-05T00:43:32.583Z,3.60
2018-12-05T00:46:01.146Z,4.63
2018-12-05T00:48:29.575Z,4.70
2018-12-05T00:50:57.993Z,5.50
2018-12-05T00:53:26.602Z,6.20
2018-12-05T00:55:55.230Z,9.03
2018-12-05T00:58:23.697Z,8.00
2018-12-05T01:00:52.163Z,8.43
2018-12-05T01:03:20.608Z,11.60
2018-12-05T01:05:49.071Z,8.97
2018-12-05T01:08:17.564Z,10.40
2018-12-05T01:10:46.076Z,8.50
2018-12-05T01:13:14.719Z,8.27
2018-12-05T01:15:43.165Z,8.87
2018-12-05T01:18:11.628Z,7.07
2018-12-05T01:20:40.077Z,7.50
2018-12-05T01:23:08.675Z,8.50
2018-12-05T01:25:37.464Z,7.27
2018-12-05T01:28:05.929Z,9.43
2018-12-05T01:30:34.395Z,7.17
2018-12-05T01:33:02.871Z,8.53
2018-12-05T01:35:31.695Z,7.77
2018-12-05T01:38:00.133Z,11.97
2018-12-05T01:40:28.574Z,8.67
2018-12-05T01:42:57.032Z,7.97
2018-12-05T01:45:25.485Z,9.20
2018-12-05T01:47:54.655Z,8.13
2018-12-05T01:50:23.296Z,11.17
2018-12-05T01:52:52.140Z,13.17
2018-12-05T01:55:20.702Z,11.43
2018-12-05T01:57:49.170Z,11.30
2018-12-05T02:00:17.829Z,13.57
2018-12-05T02:02:46.304Z,13.80
2018-12-05T02:05:14.875Z,14.80
2018-12-05T02:07:43.354Z,9.50
2018-12-05T02:10:11.833Z,13.33
2018-12-05T02:12:40.308Z,10.70
2018-12-05T02:15:08.888Z,10.53
2018-12-05T02:17:37.376Z,9.67
2018-12-05T02:20:06.009Z,10.30
2018-12-05T02:22:34.488Z,13.90
2018-12-05T02:25:02.947Z,13.20
2018-12-05T02:27:31.381Z,13.13
2018-12-05T02:29:59.959Z,10.63
2018-12-05T02:32:28.395Z,15.87
2018-12-05T02:34:56.830Z,11.63
2018-12-05T02:37:25.329Z,12.40
2018-12-05T02:39:53.784Z,10.37
2018-12-05T02:42:22.221Z,16.73
2018-12-05T02:44:50.688Z,10.30
2018-12-05T02:47:19.138Z,13.50
2018-12-05T02:49:47.620Z,11.27
2018-12-05T02:52:16.247Z,10.60
2018-12-05T02:54:44.707Z,16.03
2018-12-05T02:57:13.187Z,11.83
2018-12-05T02:59:41.672Z,13.13
2018-12-05T03:02:10.147Z,13.97
2018-12-05T03:04:38.623Z,12.17
2018-12-05T03:07:07.113Z,10.90
2018-12-05T03:09:35.667Z,16.63
2018-12-05T03:12:04.178Z,11.87
2018-12-05T03:14:32.676Z,11.60
2018-12-05T03:17:01.165Z,14.57
2018-12-05T03:19:29.691Z,12.67
2018-12-05T03:21:58.167Z,20.50
2018-12-05T03:24:26.638Z,17.37
2018-12-05T03:26:55.142Z,15.57
2018-12-05T03:29:23.646Z,78.13
2018-12-05T03:31:52.085Z,14.27
2018-12-05T03:34:20.562Z,16.87
2018-12-05T03:36:48.994Z,13.23
2018-12-05T03:39:17.484Z,13.60
2018-12-05T03:41:45.960Z,13.87
2018-12-05T03:44:14.447Z,14.90
2018-12-05T03:46:42.946Z,43.07
2018-12-05T03:49:11.443Z,22.67
2018-12-05T03:51:39.900Z,16.43
2018-12-05T03:54:08.381Z,17.47
2018-12-05T03:56:36.874Z,20.90
2018-12-05T03:59:05.330Z,13.80
2018-12-05T04:01:33.784Z,14.07
2018-12-05T04:04:02.343Z,12.83
2018-12-05T04:06:30.809Z,23.87
2018-12-05T04:08:59.283Z,32.80
2018-12-05T04:11:27.770Z,19.07
2018-12-05T04:13:56.231Z,19.17
2018-12-05T04:16:24.709Z,18.30
2018-12-05T04:18:53.197Z,19.40
2018-12-05T04:21:21.655Z,17.70
2018-12-05T04:23:50.126Z,12.43
2018-12-05T04:26:18.783Z,13.40
2018-12-05T04:28:47.267Z,18.00
2018-12-05T04:31:16.403Z,18.33
2018-12-05T04:33:44.864Z,19.77
2018-12-05T04:36:13.348Z,15.50
2018-12-05T04:38:41.804Z,18.80
2018-12-05T04:41:10.334Z,16.97
2018-12-05T04:43:38.809Z,19.33
2018-12-05T04:46:07.285Z,20.77
2018-12-05T04:48:35.725Z,17.00
2018-12-05T04:51:04.238Z,19.67
2018-12-05T04:53:32.726Z,26.43
2018-12-05T04:56:01.199Z,21.37
2018-12-05T04:58:29.663Z,18.90
2018-12-05T05:00:58.147Z,21.07
2018-12-05T05:03:26.573Z,14.73
2018-12-05T05:05:55.052Z,25.47
2018-12-05T05:08:23.487Z,23.37
2018-12-05T05:10:51.971Z,19.83
2018-12-05T05:13:20.396Z,14.63
2018-12-05T05:15:48.942Z,21.90
2018-12-05T05:18:17.391Z,19.17
2018-12-05T05:20:45.898Z,16.87
2018-12-05T05:23:14.367Z,17.73
2018-12-05T05:25:42.844Z,16.80
2018-12-05T05:28:17.955Z,15.33
2018-12-05T05:30:47.228Z,13.93
2018-12-05T05:33:15.649Z,23.40
2018-12-05T05:35:44.119Z,17.23
2018-12-05T05:38:12.634Z,13.20
2018-12-05T05:40:41.104Z,14.27
2018-12-05T05:43:09.555Z,16.10
2018-12-05T05:45:38.018Z,13.13
2018-12-05T05:48:08.892Z,15.03
2018-12-05T05:50:37.351Z,16.73
2018-12-05T05:53:05.833Z,22.03
2018-12-05T05:55:34.277Z,15.10
2018-12-05T05:58:02.745Z,13.50
2018-12-05T06:00:31.229Z,13.50
2018-12-05T06:02:59.654Z,20.80
2018-12-05T06:05:28.106Z,18.10
2018-12-05T06:07:56.535Z,21.47
2018-12-05T06:10:24.999Z,17.70
2018-12-05T06:12:53.443Z,18.43
2018-12-05T06:15:21.904Z,18.50
2018-12-05T06:17:50.370Z,24.83
2018-12-05T06:20:18.810Z,18.73
2018-12-05T06:22:47.295Z,23.97
2018-12-05T06:25:15.788Z,22.47
2018-12-05T06:27:44.264Z,16.23
2018-12-05T06:30:12.792Z,14.83
2018-12-05T06:32:41.276Z,16.10
2018-12-05T06:35:09.816Z,13.67
2018-12-05T06:37:44.751Z,16.07
2018-12-05T06:40:13.283Z,16.53
2018-12-05T06:42:41.708Z,13.83
2018-12-05T06:45:10.162Z,13.97
2018-12-05T06:47:38.652Z,16.07
2018-12-05T06:50:08.494Z,20.43
2018-12-05T06:52:37.090Z,14.43
2018-12-05T06:55:06.456Z,17.60
2018-12-05T06:57:34.896Z,21.43
2018-12-05T07:00:03.434Z,16.90
2018-12-05T07:02:31.915Z,21.33
2018-12-05T07:05:00.403Z,19.07
2018-12-05T07:07:28.852Z,17.40
2018-12-05T07:09:57.341Z,15.87
2018-12-05T07:12:25.899Z,20.13
2018-12-05T07:14:54.360Z,20.17
2018-12-05T07:17:22.880Z,18.17
2018-12-05T07:22:31.015Z,14.13
2018-12-05T07:24:59.526Z,14.30
2018-12-05T07:27:28.072Z,13.30
2018-12-05T07:29:56.722Z,17.67
2018-12-05T07:32:25.240Z,14.30
2018-12-05T07:34:53.724Z,21.60
2018-12-05T07:37:22.277Z,16.63
2018-12-05T07:39:51.012Z,16.83
2018-12-05T07:42:19.627Z,19.63
2018-12-05T07:44:48.178Z,19.83
2018-12-05T07:47:16.915Z,17.87
2018-12-05T07:49:45.511Z,17.67
2018-12-05T07:52:14.069Z,14.93
2018-12-05T07:54:42.635Z,17.57
2018-12-05T07:57:11.179Z,14.70
2018-12-05T07:59:39.786Z,13.90
2018-12-05T08:02:08.326Z,15.77
2018-12-05T08:04:36.855Z,16.97
2018-12-05T08:07:05.504Z,21.47
2018-12-05T08:09:34.132Z,26.20
2018-12-05T08:12:02.904Z,19.87
2018-12-05T08:14:31.431Z,22.60
2018-12-05T08:16:59.891Z,22.30
2018-12-05T08:19:28.676Z,19.10
2018-12-05T08:21:57.190Z,19.77
2018-12-05T08:24:25.734Z,17.90
2018-12-05T08:26:54.379Z,19.30
2018-12-05T08:29:22.983Z,20.60
2018-12-05T08:34:37.517Z,15.07
2018-12-05T08:37:06.077Z,18.17
2018-12-05T08:39:34.744Z,19.90
2018-12-05T08:42:03.411Z,20.83
2018-12-05T08:44:31.953Z,31.47
2018-12-05T08:47:01.383Z,31.97
2018-12-05T08:49:29.923Z,18.70
2018-12-05T08:51:58.499Z,21.23
2018-12-05T08:54:27.074Z,20.33
2018-12-05T08:56:55.633Z,16.73
2018-12-05T08:59:24.118Z,16.97
2018-12-05T09:01:52.653Z,17.07
2018-12-05T09:04:21.156Z,19.07
2018-12-05T09:06:49.829Z,18.10
2018-12-05T09:09:18.542Z,16.83
2018-12-05T09:11:47.767Z,16.67
2018-12-05T09:14:16.301Z,17.47
2018-12-05T09:16:44.852Z,22.07
2018-12-05T09:19:13.323Z,17.57
2018-12-05T09:21:42.168Z,21.00
2018-12-05T09:24:10.724Z,17.73
2018-12-05T09:26:39.282Z,15.63
2018-12-05T09:29:07.826Z,17.77
2018-12-05T09:31:36.311Z,21.70
2018-12-05T09:34:04.981Z,16.50
2018-12-05T09:36:33.472Z,12.73
2018-12-05T09:39:02.020Z,16.67
2018-12-05T09:41:30.465Z,13.03
2018-12-05T09:43:59.074Z,13.63
2018-12-05T09:46:27.688Z,14.63
2018-12-05T09:48:56.206Z,13.77
2018-12-05T09:51:24.767Z,18.07
2018-12-05T09:53:53.272Z,12.43
2018-12-05T09:56:22.480Z,14.37
2018-12-05T09:58:50.979Z,11.97
2018-12-05T10:01:19.526Z,13.43
2018-12-05T10:03:48.094Z,16.00
2018-12-05T10:06:16.642Z,10.73
2018-12-05T10:08:45.213Z,11.53
2018-12-05T10:11:13.850Z,13.13
2018-12-05T10:13:42.377Z,12.33
2018-12-05T10:16:10.938Z,11.47
2018-12-05T10:18:39.498Z,15.63
2018-12-05T10:21:07.984Z,14.33
2018-12-05T10:23:36.608Z,15.53
2018-12-05T10:26:05.124Z,18.47
2018-12-05T10:28:33.660Z,18.23
2018-12-05T10:31:02.156Z,18.73
2018-12-05T10:33:30.654Z,22.80
2018-12-05T10:35:59.160Z,24.37
2018-12-05T10:38:27.682Z,18.83
2018-12-05T10:40:56.218Z,23.97
2018-12-05T10:43:24.797Z,20.10
2018-12-05T10:45:53.501Z,13.50
2018-12-05T10:48:22.039Z,17.70
2018-12-05T10:50:50.574Z,15.87
2018-12-05T10:53:19.130Z,13.60
2018-12-05T10:55:47.654Z,15.00
2018-12-05T10:58:16.167Z,10.70
2018-12-05T11:00:50.107Z,11.40
2018-12-05T11:03:24.037Z,10.37
2018-12-05T11:05:57.784Z,12.37
2018-12-05T11:08:31.572Z,11.97
2018-12-05T11:13:08.980Z,12.00
2018-12-05T11:15:42.953Z,7.83
2018-12-05T11:18:16.872Z,8.63
2018-12-05T11:20:50.943Z,9.07
2018-12-05T11:23:25.069Z,10.00
2018-12-05T11:25:54.471Z,14.30
2018-12-05T11:28:23.150Z,11.10
2018-12-05T11:30:51.717Z,9.87
2018-12-05T11:33:20.305Z,12.17
2018-12-05T11:35:48.939Z,11.97
2018-12-05T11:38:17.487Z,10.57
2018-12-05T11:40:46.105Z,10.50
2018-12-05T11:43:14.674Z,16.23
2018-12-05T11:45:43.215Z,16.43
2018-12-05T11:48:11.720Z,14.30
2018-12-05T11:50:40.285Z,16.93
2018-12-05T11:53:08.911Z,15.93
2018-12-05T11:55:37.422Z,12.80
2018-12-05T11:58:06.089Z,13.83
2018-12-05T12:00:34.636Z,13.13
2018-12-05T12:03:03.380Z,14.03
2018-12-05T12:05:32.147Z,11.33
2018-12-05T12:08:00.726Z,10.97
2018-12-05T12:10:34.597Z,9.50
2018-12-05T12:13:05.719Z,8.93
2018-12-05T12:15:34.284Z,10.73
2018-12-05T12:18:02.791Z,9.97
2018-12-05T12:20:31.302Z,11.50
2018-12-05T12:23:00.374Z,10.93
2018-12-05T12:25:29.527Z,10.90
2018-12-05T12:27:58.051Z,9.17
2018-12-05T12:30:26.709Z,10.93
2018-12-05T12:32:55.261Z,10.37
2018-12-05T12:35:23.781Z,9.73
2018-12-05T12:37:52.304Z,12.87
2018-12-05T12:40:20.956Z,11.90
2018-12-05T12:42:49.423Z,10.03
2018-12-05T12:45:17.951Z,10.57
2018-12-05T12:47:46.685Z,12.10
2018-12-05T12:50:15.183Z,9.77
2018-12-05T12:52:43.809Z,11.80
2018-12-05T12:55:12.347Z,11.90
2018-12-05T12:57:40.917Z,8.93
2018-12-05T13:00:10.497Z,9.70
2018-12-05T13:02:39.018Z,11.00
2018-12-05T13:05:07.502Z,10.47
2018-12-05T13:07:42.563Z,10.03
2018-12-05T13:10:11.151Z,9.80
2018-12-05T13:12:39.652Z,11.33
2018-12-05T13:15:08.235Z,16.40
2018-12-05T13:17:36.764Z,11.23
2018-12-05T13:20:05.845Z,10.47
2018-12-05T13:22:34.367Z,14.37
2018-12-05T13:25:02.961Z,14.33
2018-12-05T13:27:31.543Z,10.57
2018-12-05T13:30:00.241Z,9.13
2018-12-05T13:32:28.815Z,10.67
2018-12-05T13:34:57.421Z,9.60
2018-12-05T13:37:26.130Z,14.07
2018-12-05T13:39:54.663Z,9.13
2018-12-05T13:42:23.272Z,10.97
2018-12-05T13:44:51.786Z,8.00
2018-12-05T13:47:20.398Z,8.33
2018-12-05T13:49:49.133Z,9.57
2018-12-05T13:52:17.661Z,12.33
2018-12-05T13:54:46.233Z,8.20
2018-12-05T13:57:14.959Z,9.27
2018-12-05T13:59:43.528Z,7.87
2018-12-05T14:02:12.068Z,7.90
2018-12-05T14:04:40.704Z,8.90
2018-12-05T14:07:09.255Z,12.60
2018-12-05T14:09:37.802Z,11.73
2018-12-05T14:12:08.399Z,9.20
2018-12-05T14:14:37.564Z,10.57
2018-12-05T14:17:06.156Z,25.97
2018-12-05T14:19:34.808Z,8.87
2018-12-05T14:22:03.326Z,6.73
2018-12-05T14:24:31.900Z,8.07
2018-12-05T14:27:00.453Z,7.30
2018-12-05T14:29:29.042Z,9.33
2018-12-05T14:31:57.756Z,8.80
2018-12-05T14:34:26.351Z,9.63
2018-12-05T14:36:54.973Z,9.97
2018-12-05T14:39:23.491Z,8.30
2018-12-05T14:41:52.271Z,7.20
2018-12-05T14:44:20.875Z,21.17
2018-12-05T14:46:49.468Z,22.87
2018-12-05T14:49:18.059Z,8.13
2018-12-05T14:51:46.652Z,7.93
2018-12-05T14:54:15.268Z,9.20
2018-12-05T14:56:43.927Z,10.73
2018-12-05T14:59:12.489Z,16.77
2018-12-05T15:01:41.086Z,11.90
2018-12-05T15:04:09.644Z,8.97
2018-12-05T15:06:38.423Z,10.07
2018-12-05T15:09:08.079Z,9.77
2018-12-05T15:11:36.623Z,12.87
2018-12-05T15:14:05.240Z,15.60
2018-12-05T15:16:33.880Z,15.27
2018-12-05T15:19:02.467Z,19.17
2018-12-05T15:21:31.165Z,19.17
2018-12-05T15:23:59.711Z,22.57
2018-12-05T15:26:28.429Z,19.40
2018-12-05T15:28:56.979Z,16.80
2018-12-05T15:31:25.502Z,29.27
2018-12-05T15:33:54.068Z,11.47
2018-12-05T15:36:22.560Z,11.40
2018-12-05T15:38:51.033Z,11.67
2018-12-05T15:41:19.598Z,12.77
2018-12-05T15:43:48.085Z,12.35
2018-12-05T15:46:16.583Z,15.03
2018-12-05T15:48:45.049Z,16.17
2018-12-05T15:51:13.492Z,17.07
2018-12-05T15:53:41.946Z,15.53
2018-12-05T15:56:10.417Z,12.70
2018-12-05T15:58:38.899Z,13.53
2018-12-05T16:01:07.399Z,15.50
2018-12-05T16:03:42.934Z,15.43
2018-12-05T16:06:06.517Z,15.73
2018-12-05T16:08:34.977Z,17.57
2018-12-05T16:11:03.423Z,16.07
2018-12-05T16:13:31.903Z,15.13
2018-12-05T16:16:00.417Z,17.47
2018-12-05T16:18:28.871Z,33.20
2018-12-05T16:20:57.299Z,18.97
2018-12-05T16:23:25.826Z,17.53
2018-12-05T16:25:55.331Z,16.37
2018-12-05T16:28:23.940Z,18.63
2018-12-05T16:30:52.388Z,26.13
2018-12-05T16:33:20.819Z,46.97
2018-12-05T16:35:49.310Z,22.97
2018-12-05T16:38:17.827Z,25.40
2018-12-05T16:40:46.288Z,22.33
2018-12-05T16:43:14.787Z,18.30
2018-12-05T16:45:43.239Z,21.57
2018-12-05T16:48:11.688Z,18.87
2018-12-05T16:50:40.191Z,17.70
2018-12-05T16:53:08.772Z,18.40
2018-12-05T16:55:37.920Z,23.17
2018-12-05T16:58:06.382Z,28.53
2018-12-05T17:00:34.844Z,31.73
2018-12-05T17:03:03.323Z,31.70
2018-12-05T17:05:31.839Z,47.97
2018-12-05T17:08:00.280Z,93.33
2018-12-05T17:10:28.739Z,96.37
2018-12-05T17:12:57.200Z,130.30
2018-12-05T17:15:26.130Z,176.57
2018-12-05T17:17:55.052Z,91.87
2018-12-05T17:20:23.527Z,244.73
2018-12-05T17:22:51.969Z,144.23
2018-12-05T17:25:20.584Z,93.47
2018-12-05T17:27:49.993Z,65.20
2018-12-05T17:30:18.559Z,124.07
2018-12-05T17:32:47.127Z,149.13
2018-12-05T17:35:15.611Z,71.30
2018-12-05T17:37:44.065Z,71.67
2018-12-05T17:40:12.547Z,27.70
2018-12-05T17:42:40.996Z,37.03
2018-12-05T17:45:09.472Z,58.63
2018-12-05T17:47:37.948Z,106.40
2018-12-05T17:50:06.428Z,21.77
2018-12-05T17:52:34.880Z,20.37
2018-12-05T17:55:03.341Z,28.03
2018-12-05T17:57:31.795Z,17.63
2018-12-05T18:00:00.291Z,17.67
2018-12-05T18:02:28.827Z,22.00
2018-12-05T18:04:57.327Z,26.87
2018-12-05T18:07:25.787Z,23.67
2018-12-05T18:09:54.490Z,17.20
2018-12-05T18:12:23.527Z,16.53
2018-12-05T18:14:52.011Z,21.97
2018-12-05T18:17:20.463Z,19.93
2018-12-05T18:19:49.004Z,24.30
2018-12-05T18:22:17.465Z,17.17
2018-12-05T18:24:45.906Z,22.77
2018-12-05T18:27:14.411Z,19.87
2018-12-05T18:29:42.891Z,21.60
2018-12-05T18:32:11.362Z,28.03
2018-12-05T18:34:39.859Z,26.73
2018-12-05T18:37:08.320Z,22.77
2018-12-05T18:39:36.775Z,22.43
2018-12-05T18:42:05.236Z,20.60
2018-12-05T18:44:33.721Z,24.77
2018-12-05T18:47:02.320Z,45.67
2018-12-05T18:49:30.781Z,30.00
2018-12-05T18:51:59.283Z,25.27
2018-12-05T18:54:28.312Z,20.73
2018-12-05T18:56:56.790Z,23.00
2018-12-05T18:59:25.270Z,20.87
2018-12-05T19:01:53.733Z,28.63
2018-12-05T19:04:22.248Z,25.10
2018-12-05T19:06:51.044Z,31.03
2018-12-05T19:09:26.546Z,23.63
2018-12-05T19:11:50.038Z,26.43
2018-12-05T19:14:24.076Z,26.33
2018-12-05T19:16:57.455Z,28.30
2018-12-05T19:19:25.932Z,28.43
2018-12-05T19:21:54.392Z,32.23
2018-12-05T19:24:22.872Z,30.03
2018-12-05T19:26:51.330Z,25.87
2018-12-05T19:29:19.770Z,25.43
2018-12-05T19:31:48.771Z,23.20
2018-12-05T19:34:17.251Z,23.57
2018-12-05T19:36:45.704Z,28.17
2018-12-05T19:39:14.212Z,22.87
2018-12-05T19:41:42.711Z,22.17
2018-12-05T19:44:11.151Z,27.33
2018-12-05T19:46:39.604Z,21.83
2018-12-05T19:49:08.112Z,27.50
2018-12-05T19:51:36.567Z,27.77
2018-12-05T19:54:05.092Z,28.40
2018-12-05T19:56:33.525Z,23.97
2018-12-05T19:59:01.945Z,24.50
2018-12-05T20:01:30.363Z,25.03
2018-12-05T20:03:59.993Z,32.93
2018-12-05T20:06:28.504Z,26.13
2018-12-05T20:08:56.988Z,24.83
2018-12-05T20:11:25.502Z,24.73
2018-12-05T20:13:54.379Z,23.57
2018-12-05T20:16:23.007Z,31.50
2018-12-05T20:18:52.142Z,22.77
2018-12-05T20:21:21.268Z,25.87
2018-12-05T20:23:49.948Z,32.87
2018-12-05T20:26:18.435Z,24.57
2018-12-05T20:28:46.939Z,23.80
2018-12-05T20:31:15.406Z,31.30
2018-12-05T20:33:43.966Z,33.73
2018-12-05T20:36:12.415Z,23.77
2018-12-05T20:38:40.874Z,28.30
2018-12-05T20:41:09.677Z,25.77
2018-12-05T20:43:38.796Z,26.27
2018-12-05T20:46:07.859Z,32.00
2018-12-05T20:48:36.954Z,34.07
2018-12-05T20:51:05.890Z,31.70
2018-12-05T20:53:34.737Z,36.30
2018-12-05T20:56:03.187Z,28.97
2018-12-05T20:58:31.675Z,21.73
2018-12-05T21:01:00.095Z,24.33
2018-12-05T21:03:28.555Z,28.93
2018-12-05T21:05:57.637Z,21.70
2018-12-05T21:08:27.187Z,24.50
2018-12-05T21:10:56.083Z,21.87
2018-12-05T21:13:24.522Z,34.10
2018-12-05T21:15:53.034Z,29.50
2018-12-05T21:18:21.472Z,27.57
2018-12-05T21:20:50.299Z,28.00
2018-12-05T21:23:19.380Z,29.30
2018-12-05T21:25:48.359Z,70.77
2018-12-05T21:28:17.500Z,29.97
2018-12-05T21:30:46.286Z,25.27
2018-12-05T21:33:14.971Z,28.80
2018-12-05T21:35:43.435Z,30.40
2018-12-05T21:38:11.878Z,29.07
2018-12-05T21:40:40.646Z,30.40
2018-12-05T21:43:09.738Z,26.43
2018-12-05T21:45:38.940Z,30.27
2018-12-05T21:48:08.320Z,35.17
2018-12-05T21:50:37.310Z,22.30
2018-12-05T21:53:06.097Z,27.87
2018-12-05T21:55:34.543Z,28.03
2018-12-05T21:58:03.037Z,29.93
2018-12-05T22:00:31.460Z,34.53
2018-12-05T22:02:59.887Z,26.20
2018-12-05T22:05:28.331Z,25.70
2018-12-05T22:07:56.759Z,32.20
2018-12-05T22:10:25.237Z,32.90
2018-12-05T22:12:53.659Z,33.03
2018-12-05T22:15:22.155Z,33.42
2018-12-05T22:17:50.595Z,26.70
2018-12-05T22:20:19.023Z,28.10
2018-12-05T22:22:47.483Z,24.77
2018-12-05T22:25:15.914Z,24.23
2018-12-05T22:27:44.396Z,28.03
2018-12-05T22:30:12.879Z,31.60
2018-12-05T22:32:41.355Z,19.10
2018-12-05T22:35:09.807Z,19.40
2018-12-05T22:37:38.238Z,18.70
2018-12-05T22:40:08.020Z,22.53
2018-12-05T22:42:36.448Z,24.27
2018-12-05T22:45:05.248Z,31.33
2018-12-05T22:47:33.700Z,40.83
2018-12-05T22:50:02.132Z,45.63
2018-12-05T22:52:30.579Z,38.90
2018-12-05T22:54:59.013Z,27.10
2018-12-05T22:57:27.464Z,25.40
2018-12-05T22:59:55.940Z,22.83
2018-12-05T23:02:24.518Z,23.53
2018-12-05T23:04:52.969Z,31.80
2018-12-05T23:07:22.901Z,21.10
2018-12-05T23:09:51.365Z,28.87
2018-12-05T23:12:19.814Z,29.37
2018-12-05T23:14:48.382Z,33.83
2018-12-05T23:17:16.816Z,26.07
2018-12-05T23:19:45.234Z,27.53
2018-12-05T23:22:13.683Z,29.27
2018-12-05T23:24:42.167Z,23.00
2018-12-05T23:27:10.655Z,20.57
2018-12-05T23:29:39.119Z,24.77
2018-12-05T23:32:07.587Z,20.43
2018-12-05T23:34:36.026Z,23.40
2018-12-05T23:37:04.527Z,19.17
2018-12-05T23:39:32.992Z,20.07
2018-12-05T23:42:01.433Z,19.93
2018-12-05T23:44:29.944Z,15.63
2018-12-05T23:46:58.395Z,18.57
2018-12-05T23:49:26.948Z,17.57
2018-12-05T23:51:55.491Z,18.97
2018-12-05T23:54:23.912Z,16.63
2018-12-05T23:56:52.371Z,20.77
2018-12-05T23:59:20.882Z,26.03
